createdAt,value
2019-05-03T00:00:58.483Z,93.30
2019-05-03T00:03:24.798Z,93.30
2019-05-03T00:05:52.533Z,93.50
2019-05-03T00:08:18.740Z,93.50
2019-05-03T00:10:45.046Z,93.50
2019-05-03T00:13:12.476Z,93.50
2019-05-03T00:15:52.868Z,93.60
2019-05-03T00:18:19.135Z,93.60
2019-05-03T00:20:45.389Z,93.60
2019-05-03T00:23:12.111Z,93.70
2019-05-03T00:25:38.333Z,93.70
2019-05-03T00:28:04.661Z,93.70
2019-05-03T00:30:31.993Z,93.50
2019-05-03T00:32:58.422Z,93.50
2019-05-03T00:35:26.526Z,93.70
2019-05-03T00:37:54.660Z,93.80
2019-05-03T00:40:28.079Z,93.90
2019-05-03T00:42:54.925Z,93.90
2019-05-03T00:45:22.116Z,93.90
2019-05-03T00:47:48.459Z,93.90
2019-05-03T00:50:15.125Z,93.90
2019-05-03T00:52:42.344Z,93.80
2019-05-03T00:55:16.312Z,93.80
2019-05-03T00:57:36.814Z,93.80
2019-05-03T01:00:06.146Z,93.80
2019-05-03T01:02:32.372Z,93.70
2019-05-03T01:04:58.616Z,93.70
2019-05-03T01:07:24.903Z,93.70
2019-05-03T01:09:51.795Z,93.80
2019-05-03T01:12:18.207Z,93.80
2019-05-03T01:14:46.367Z,93.90
2019-05-03T01:17:12.574Z,93.80
2019-05-03T01:19:38.840Z,93.80
2019-05-03T01:22:05.142Z,93.80
2019-05-03T01:24:32.271Z,93.90
2019-05-03T01:26:58.799Z,93.80
2019-05-03T01:29:25.116Z,93.90
2019-05-03T01:31:52.833Z,94.30
2019-05-03T01:34:19.080Z,94.00
2019-05-03T01:36:45.342Z,94.00
2019-05-03T01:39:12.771Z,94.00
2019-05-03T01:41:39.216Z,93.90
2019-05-03T01:44:05.477Z,94.00
2019-05-03T01:46:31.743Z,94.00
2019-05-03T01:49:05.606Z,93.60
2019-05-03T01:51:33.765Z,93.30
2019-05-03T01:54:01.685Z,93.10
2019-05-03T01:56:28.184Z,92.80
2019-05-03T01:58:54.375Z,92.80
2019-05-03T02:01:31.840Z,92.70
2019-05-03T02:04:03.025Z,92.70
2019-05-03T02:06:29.267Z,92.60
2019-05-03T02:08:55.526Z,92.60
2019-05-03T02:11:22.190Z,92.60
2019-05-03T02:13:48.705Z,92.60
2019-05-03T02:16:14.927Z,92.70
2019-05-03T02:18:42.424Z,92.90
2019-05-03T02:21:08.700Z,92.90
2019-05-03T02:23:34.933Z,93.00
2019-05-03T02:26:02.888Z,93.10
2019-05-03T02:28:29.514Z,93.10
2019-05-03T02:30:55.732Z,92.60
2019-05-03T02:33:23.376Z,92.40
2019-05-03T02:35:49.819Z,92.40
2019-05-03T02:38:16.053Z,92.50
2019-05-03T02:40:43.104Z,92.40
2019-05-03T02:43:17.077Z,92.50
2019-05-03T02:45:48.708Z,92.40
2019-05-03T02:48:16.853Z,92.40
2019-05-03T02:50:45.137Z,92.20
2019-05-03T02:53:11.102Z,92.10
2019-05-03T02:55:37.320Z,92.10
2019-05-03T02:58:05.717Z,92.10
2019-05-03T03:00:56.019Z,92.30
2019-05-03T03:03:22.213Z,92.10
2019-05-03T03:05:51.139Z,92.20
2019-05-03T03:08:19.837Z,92.00
2019-05-03T03:10:46.864Z,91.90
2019-05-03T03:13:16.257Z,91.90
2019-05-03T03:15:41.787Z,91.90
2019-05-03T03:18:09.205Z,92.00
2019-05-03T03:20:37.041Z,92.00
2019-05-03T03:23:06.012Z,92.10
2019-05-03T03:25:37.155Z,92.20
2019-05-03T03:28:06.773Z,92.20
2019-05-03T03:30:59.677Z,92.20
2019-05-03T03:33:28.029Z,92.30
2019-05-03T03:36:01.110Z,92.30
2019-05-03T03:38:22.562Z,92.40
2019-05-03T03:40:49.578Z,92.40
2019-05-03T03:43:19.607Z,92.50
2019-05-03T03:45:47.413Z,92.60
2019-05-03T03:48:17.512Z,92.70
2019-05-03T03:50:45.887Z,92.70
2019-05-03T03:53:15.665Z,92.60
2019-05-03T03:55:45.950Z,92.30
2019-05-03T03:58:22.477Z,92.40
2019-05-03T04:00:46.374Z,92.00
2019-05-03T04:03:15.533Z,91.90
2019-05-03T04:05:40.932Z,91.80
2019-05-03T04:08:07.277Z,91.50
2019-05-03T04:10:35.273Z,91.40
2019-05-03T04:13:05.441Z,91.30
2019-05-03T04:15:48.931Z,91.30
2019-05-03T04:18:17.558Z,91.10
2019-05-03T04:20:45.882Z,91.00
2019-05-03T04:23:12.108Z,90.90
2019-05-03T04:25:38.833Z,90.90
2019-05-03T04:28:05.921Z,90.80
2019-05-03T04:30:33.129Z,90.80
2019-05-03T04:32:59.414Z,90.60
2019-05-03T04:35:26.609Z,90.60
2019-05-03T04:37:55.869Z,90.60
2019-05-03T04:40:21.446Z,90.50
2019-05-03T04:42:47.677Z,90.80
2019-05-03T04:45:16.526Z,90.70
2019-05-03T04:47:42.925Z,90.60
2019-05-03T04:50:09.439Z,90.60
2019-05-03T04:52:36.124Z,90.50
2019-05-03T04:55:06.575Z,90.40
2019-05-03T04:57:40.688Z,90.20
2019-05-03T05:00:01.692Z,90.20
2019-05-03T05:02:27.824Z,90.10
2019-05-03T05:04:55.579Z,89.40
2019-05-03T05:07:22.018Z,89.30
2019-05-03T05:09:48.139Z,89.00
2019-05-03T05:12:16.151Z,88.90
2019-05-03T05:14:42.465Z,88.30
2019-05-03T05:17:11.019Z,88.40
2019-05-03T05:19:47.746Z,87.80
2019-05-03T05:22:15.878Z,87.00
2019-05-03T05:24:42.082Z,86.40
2019-05-03T05:27:14.632Z,86.30
2019-05-03T05:29:41.015Z,85.60
2019-05-03T05:32:07.237Z,85.80
2019-05-03T05:34:34.923Z,85.90
2019-05-03T05:37:05.395Z,85.70
2019-05-03T05:39:31.615Z,85.30
2019-05-03T05:41:57.771Z,84.70
2019-05-03T05:44:24.767Z,84.40
2019-05-03T05:46:54.298Z,84.40
2019-05-03T05:49:40.623Z,84.40
2019-05-03T05:52:06.840Z,83.80
2019-05-03T05:54:35.015Z,84.60
2019-05-03T05:57:15.008Z,84.30
2019-05-03T05:59:52.017Z,83.10
2019-05-03T06:02:18.669Z,83.30
2019-05-03T06:04:45.259Z,83.90
2019-05-03T06:07:24.711Z,83.70
2019-05-03T06:09:58.251Z,83.10
2019-05-03T06:12:26.318Z,83.00
2019-05-03T06:14:54.477Z,83.10
2019-05-03T06:17:24.430Z,83.00
2019-05-03T06:20:05.384Z,83.10
2019-05-03T06:22:36.329Z,82.70
2019-05-03T06:25:06.739Z,81.40
2019-05-03T06:27:34.868Z,81.90
2019-05-03T06:30:05.821Z,81.80
2019-05-03T06:32:36.579Z,81.90
2019-05-03T06:35:04.973Z,80.90
2019-05-03T06:37:45.878Z,80.70
2019-05-03T06:40:14.778Z,80.30
2019-05-03T06:42:51.608Z,80.70
2019-05-03T06:45:11.684Z,81.20
2019-05-03T06:47:40.410Z,81.20
2019-05-03T06:50:05.905Z,80.30
2019-05-03T06:52:32.103Z,78.60
2019-05-03T06:55:00.262Z,77.70
2019-05-03T06:57:26.334Z,77.30
2019-05-03T06:59:55.024Z,74.90
2019-05-03T07:02:32.116Z,74.00
2019-05-03T07:05:06.142Z,72.90
2019-05-03T07:07:46.255Z,73.70
2019-05-03T07:10:24.936Z,73.10
2019-05-03T07:12:57.001Z,71.50
2019-05-03T07:15:25.008Z,71.80
2019-05-03T07:17:51.233Z,72.80
2019-05-03T07:20:17.480Z,73.30
2019-05-03T07:22:44.471Z,73.70
2019-05-03T07:25:10.956Z,73.30
2019-05-03T07:27:37.192Z,72.70
2019-05-03T07:30:05.659Z,72.60
2019-05-03T07:32:31.820Z,72.70
2019-05-03T07:34:57.945Z,73.80
2019-05-03T07:37:24.618Z,72.30
2019-05-03T07:39:50.918Z,71.80
2019-05-03T07:42:17.156Z,70.50
2019-05-03T07:44:44.973Z,70.90
2019-05-03T07:47:11.256Z,69.80
2019-05-03T07:49:37.340Z,70.10
2019-05-03T07:52:05.633Z,70.30
2019-05-03T07:54:31.780Z,69.50
2019-05-03T07:56:59.888Z,67.90
2019-05-03T07:59:25.991Z,68.10
2019-05-03T08:01:54.642Z,68.60
2019-05-03T08:04:20.976Z,68.60
2019-05-03T08:06:47.200Z,67.70
2019-05-03T08:09:15.182Z,65.50
2019-05-03T08:11:41.527Z,64.70
2019-05-03T08:14:09.097Z,64.60
2019-05-03T08:16:35.420Z,65.60
2019-05-03T08:19:01.919Z,65.30
2019-05-03T08:21:28.041Z,65.00
2019-05-03T08:23:55.657Z,65.10
2019-05-03T08:26:22.063Z,65.10
2019-05-03T08:28:48.249Z,64.60
2019-05-03T08:31:16.269Z,65.20
2019-05-03T08:34:01.166Z,65.10
2019-05-03T08:36:27.291Z,65.30
2019-05-03T08:38:53.395Z,65.40
2019-05-03T08:41:25.144Z,64.90
2019-05-03T08:43:51.369Z,64.20
2019-05-03T08:46:17.555Z,64.00
2019-05-03T08:48:45.526Z,63.50
2019-05-03T08:51:11.759Z,64.20
2019-05-03T08:53:37.911Z,63.20
2019-05-03T08:56:05.256Z,64.00
2019-05-03T08:58:32.048Z,63.10
2019-05-03T09:00:58.186Z,63.00
2019-05-03T09:03:24.908Z,60.90
2019-05-03T09:05:51.265Z,59.70
2019-05-03T09:08:17.702Z,59.80
2019-05-03T09:10:48.507Z,58.80
2019-05-03T09:13:16.734Z,59.90
2019-05-03T09:15:44.960Z,60.60
2019-05-03T09:18:14.245Z,61.10
2019-05-03T09:20:39.252Z,58.00
2019-05-03T09:23:05.785Z,55.70
2019-05-03T09:25:32.077Z,56.40
2019-05-03T09:27:58.192Z,56.90
2019-05-03T09:30:25.085Z,56.60
2019-05-03T09:32:51.329Z,56.10
2019-05-03T09:35:29.648Z,56.60
2019-05-03T09:37:45.915Z,56.60
2019-05-03T09:40:12.118Z,57.40
2019-05-03T09:42:38.236Z,58.20
2019-05-03T09:45:05.800Z,59.30
2019-05-03T09:47:32.037Z,59.50
2019-05-03T09:49:58.130Z,57.90
2019-05-03T09:52:24.968Z,56.00
2019-05-03T09:54:54.756Z,55.70
2019-05-03T09:57:20.973Z,51.60
2019-05-03T09:59:56.615Z,48.70
2019-05-03T10:02:15.218Z,48.60
2019-05-03T10:04:41.497Z,47.60
2019-05-03T10:07:07.722Z,48.10
2019-05-03T10:09:35.388Z,49.30
2019-05-03T10:12:05.362Z,49.70
2019-05-03T10:14:31.331Z,48.30
2019-05-03T10:17:16.629Z,47.80
2019-05-03T10:19:45.038Z,47.20
2019-05-03T10:22:12.765Z,47.90
2019-05-03T10:24:38.881Z,46.70
2019-05-03T10:27:05.598Z,46.60
2019-05-03T10:29:32.066Z,46.90
2019-05-03T10:32:09.401Z,48.20
2019-05-03T10:34:35.768Z,47.60
2019-05-03T10:37:05.213Z,47.70
2019-05-03T10:39:31.474Z,47.60
2019-05-03T10:41:57.662Z,46.80
2019-05-03T10:44:24.536Z,46.30
2019-05-03T10:46:55.905Z,47.20
2019-05-03T10:49:22.086Z,47.10
2019-05-03T10:51:50.210Z,46.70
2019-05-03T10:54:16.295Z,46.10
2019-05-03T10:56:47.093Z,45.20
2019-05-03T10:59:13.683Z,46.10
2019-05-03T11:01:47.923Z,46.30
2019-05-03T11:04:14.776Z,46.40
2019-05-03T11:06:41.048Z,47.80
2019-05-03T11:09:07.359Z,46.90
2019-05-03T11:11:35.235Z,46.10
2019-05-03T11:14:01.605Z,46.10
2019-05-03T11:16:28.158Z,46.60
2019-05-03T11:18:54.884Z,46.20
2019-05-03T11:21:28.111Z,46.40
2019-05-03T11:23:49.295Z,47.50
2019-05-03T11:26:17.533Z,48.40
2019-05-03T11:28:44.870Z,48.30
2019-05-03T11:31:29.860Z,46.70
2019-05-03T11:33:58.761Z,46.50
2019-05-03T11:36:34.755Z,47.50
2019-05-03T11:39:01.146Z,48.40
2019-05-03T11:41:32.614Z,48.70
2019-05-03T11:43:59.076Z,50.20
2019-05-03T11:46:27.483Z,49.50
2019-05-03T11:48:54.845Z,50.40
2019-05-03T11:51:21.968Z,50.40
2019-05-03T11:53:48.153Z,49.90
2019-05-03T11:56:14.818Z,50.20
2019-05-03T11:58:41.776Z,50.10
2019-05-03T12:01:15.425Z,50.10
2019-05-03T12:03:39.993Z,51.30
2019-05-03T12:06:06.361Z,51.40
2019-05-03T12:08:34.478Z,51.50
2019-05-03T12:11:05.943Z,49.80
2019-05-03T12:13:32.044Z,49.90
2019-05-03T12:15:59.338Z,49.80
2019-05-03T12:18:26.421Z,50.40
2019-05-03T12:20:57.095Z,50.60
2019-05-03T12:23:22.744Z,51.50
2019-05-03T12:25:50.569Z,51.20
2019-05-03T12:28:20.422Z,50.50
2019-05-03T12:30:47.466Z,50.20
2019-05-03T12:33:15.304Z,49.70
2019-05-03T12:35:41.664Z,49.40
2019-05-03T12:38:07.761Z,49.30
2019-05-03T12:40:34.979Z,49.40
2019-05-03T12:43:02.652Z,48.70
2019-05-03T12:45:28.842Z,48.60
2019-05-03T12:47:55.960Z,48.60
2019-05-03T12:50:22.678Z,49.30
2019-05-03T12:52:50.441Z,49.50
2019-05-03T12:55:17.141Z,50.90
2019-05-03T12:57:43.250Z,51.60
2019-05-03T13:00:18.017Z,51.90
2019-05-03T13:02:46.194Z,52.40
2019-05-03T13:05:12.319Z,52.70
2019-05-03T13:07:46.177Z,53.30
2019-05-03T13:10:12.814Z,53.50
2019-05-03T13:12:49.692Z,53.30
2019-05-03T13:15:07.586Z,53.60
2019-05-03T13:17:34.985Z,53.80
2019-05-03T13:20:01.804Z,53.80
2019-05-03T13:22:27.936Z,54.50
2019-05-03T13:24:54.518Z,54.30
2019-05-03T13:27:20.982Z,54.80
2019-05-03T13:29:47.075Z,54.50
2019-05-03T13:32:13.182Z,54.80
2019-05-03T13:34:41.310Z,53.90
2019-05-03T13:37:07.353Z,53.90
2019-05-03T13:39:35.721Z,54.00
2019-05-03T13:42:01.582Z,54.30
2019-05-03T13:44:27.855Z,54.30
2019-05-03T13:46:55.235Z,54.40
2019-05-03T13:49:23.596Z,54.80
2019-05-03T13:51:57.756Z,55.40
2019-05-03T13:54:25.798Z,55.10
2019-05-03T13:56:55.203Z,55.00
2019-05-03T13:59:22.179Z,56.00
2019-05-03T14:01:48.759Z,56.70
2019-05-03T14:04:15.357Z,56.00
2019-05-03T14:06:41.507Z,55.20
2019-05-03T14:09:07.841Z,55.40
2019-05-03T14:11:35.349Z,56.10
2019-05-03T14:14:04.697Z,56.70
2019-05-03T14:16:31.250Z,56.50
2019-05-03T14:18:59.363Z,57.20
2019-05-03T14:21:27.569Z,58.10
2019-05-03T14:24:09.019Z,59.10
2019-05-03T14:26:35.282Z,59.70
2019-05-03T14:29:01.447Z,58.90
2019-05-03T14:31:27.552Z,59.20
2019-05-03T14:33:55.589Z,60.10
2019-05-03T14:36:21.771Z,62.50
2019-05-03T14:38:47.971Z,64.10
2019-05-03T14:41:15.104Z,62.70
2019-05-03T14:43:41.741Z,62.50
2019-05-03T14:46:07.834Z,62.90
2019-05-03T14:48:35.114Z,63.90
2019-05-03T14:51:01.524Z,64.70
2019-05-03T14:53:27.704Z,66.30
2019-05-03T14:56:01.824Z,67.30
2019-05-03T14:58:29.844Z,67.40
2019-05-03T15:00:57.862Z,69.00
2019-05-03T15:03:25.859Z,69.70
2019-05-03T15:05:51.973Z,69.20
2019-05-03T15:08:18.243Z,69.80
2019-05-03T15:10:45.659Z,69.30
2019-05-03T15:13:11.983Z,68.50
2019-05-03T15:15:38.165Z,67.30
2019-05-03T15:18:05.905Z,66.30
2019-05-03T15:20:32.168Z,63.90
2019-05-03T15:22:58.370Z,64.60
2019-05-03T15:25:25.048Z,64.80
2019-05-03T15:27:51.451Z,65.00
2019-05-03T15:30:17.799Z,66.30
2019-05-03T15:32:56.596Z,66.10
2019-05-03T15:35:15.199Z,66.30
2019-05-03T15:37:45.109Z,66.60
2019-05-03T15:40:10.890Z,66.20
2019-05-03T15:42:38.985Z,62.30
2019-05-03T15:45:19.687Z,62.90
2019-05-03T15:47:56.622Z,62.20
2019-05-03T15:50:25.012Z,61.90
2019-05-03T15:52:50.876Z,60.00
2019-05-03T15:55:17.068Z,60.20
2019-05-03T15:57:44.713Z,59.80
2019-05-03T16:00:15.125Z,59.10
2019-05-03T16:02:41.356Z,59.20
2019-05-03T16:05:07.744Z,59.80
2019-05-03T16:07:35.551Z,59.70
2019-05-03T16:10:04.690Z,60.40
2019-05-03T16:12:30.961Z,60.40
2019-05-03T16:14:57.137Z,60.80
2019-05-03T16:17:24.480Z,61.30
2019-05-03T16:19:51.174Z,60.80
2019-05-03T16:22:17.301Z,61.00
2019-05-03T16:24:44.802Z,61.20
2019-05-03T16:27:16.043Z,62.20
2019-05-03T16:29:44.569Z,62.90
2019-05-03T16:32:10.399Z,64.00
2019-05-03T16:34:36.509Z,64.50
2019-05-03T16:37:04.359Z,64.70
2019-05-03T16:39:30.768Z,64.30
2019-05-03T16:41:57.275Z,64.10
2019-05-03T16:44:24.373Z,64.80
2019-05-03T16:46:50.591Z,64.80
2019-05-03T16:49:16.719Z,65.50
2019-05-03T16:51:44.285Z,66.40
2019-05-03T16:54:10.715Z,67.40
2019-05-03T16:56:36.832Z,68.20
2019-05-03T16:59:03.140Z,69.20
2019-05-03T17:01:29.334Z,69.50
2019-05-03T17:03:57.422Z,69.70
2019-05-03T17:06:26.544Z,70.70
2019-05-03T17:09:11.397Z,70.00
2019-05-03T17:11:37.694Z,70.60
2019-05-03T17:14:05.020Z,71.20
2019-05-03T17:16:31.391Z,71.20
2019-05-03T17:18:57.520Z,71.00
2019-05-03T17:21:25.475Z,69.50
2019-05-03T17:23:51.589Z,69.80
2019-05-03T17:26:17.776Z,70.50
2019-05-03T17:28:44.767Z,71.90
2019-05-03T17:31:11.084Z,74.20
2019-05-03T17:33:37.174Z,76.00
2019-05-03T17:36:05.231Z,76.50
2019-05-03T17:38:31.396Z,78.90
2019-05-03T17:41:08.289Z,80.80
2019-05-03T17:43:42.322Z,82.30
2019-05-03T17:46:10.328Z,83.30
2019-05-03T17:48:36.558Z,85.10
2019-05-03T17:51:04.461Z,84.50
2019-05-03T17:53:38.190Z,84.40
2019-05-03T17:56:19.028Z,84.80
2019-05-03T17:58:49.941Z,85.10
2019-05-03T18:01:35.098Z,84.70
2019-05-03T18:04:12.120Z,86.50
2019-05-03T18:06:46.157Z,86.70
2019-05-03T18:09:14.919Z,86.80
2019-05-03T18:11:45.932Z,87.30
2019-05-03T18:14:12.167Z,87.30
2019-05-03T18:16:38.283Z,87.30
2019-05-03T18:19:05.230Z,87.60
2019-05-03T18:21:31.474Z,87.70
2019-05-03T18:23:57.561Z,88.60
2019-05-03T18:26:24.967Z,89.30
2019-05-03T18:28:51.269Z,89.20
2019-05-03T18:31:17.361Z,89.20
2019-05-03T18:33:44.299Z,89.40
2019-05-03T18:36:10.838Z,89.10
2019-05-03T18:38:39.604Z,89.10
2019-05-03T18:41:07.135Z,88.70
2019-05-03T18:43:35.202Z,88.50
2019-05-03T18:46:09.352Z,88.70
2019-05-03T18:48:35.501Z,88.70
2019-05-03T18:51:05.315Z,89.30
2019-05-03T18:53:31.701Z,90.00
2019-05-03T18:55:57.896Z,90.30
2019-05-03T18:58:24.475Z,90.70
2019-05-03T19:00:50.633Z,91.30
2019-05-03T19:03:16.785Z,91.70
2019-05-03T19:05:47.813Z,92.10
2019-05-03T19:08:27.480Z,92.40
2019-05-03T19:11:04.612Z,92.70
2019-05-03T19:13:50.765Z,92.90
2019-05-03T19:16:35.415Z,93.20
2019-05-03T19:19:04.697Z,93.40
2019-05-03T19:21:31.170Z,93.60
2019-05-03T19:23:57.382Z,93.50
2019-05-03T19:26:24.865Z,93.80
2019-05-03T19:28:51.483Z,94.30
2019-05-03T19:31:17.649Z,94.40
2019-05-03T19:33:45.655Z,94.60
2019-05-03T19:36:11.852Z,94.80
2019-05-03T19:38:38.083Z,94.90
2019-05-03T19:41:04.186Z,95.00
2019-05-03T19:43:30.307Z,95.30
2019-05-03T19:45:56.696Z,95.40
2019-05-03T19:48:22.876Z,95.50
2019-05-03T19:50:48.989Z,95.60
2019-05-03T19:53:28.677Z,95.60
2019-05-03T19:55:55.357Z,95.80
2019-05-03T19:58:21.657Z,95.40
2019-05-03T20:01:06.669Z,95.70
2019-05-03T20:03:40.634Z,95.90
2019-05-03T20:06:25.206Z,95.70
2019-05-03T20:08:53.404Z,95.80
2019-05-03T20:11:19.550Z,96.00
2019-05-03T20:13:45.771Z,96.20
2019-05-03T20:16:11.895Z,96.30
2019-05-03T20:18:38.178Z,96.40
2019-05-03T20:21:04.666Z,96.50
2019-05-03T20:23:30.766Z,96.60
2019-05-03T20:25:56.918Z,96.80
2019-05-03T20:28:24.651Z,96.90
2019-05-03T20:30:50.904Z,97.00
2019-05-03T20:33:17.094Z,97.20
2019-05-03T20:35:44.989Z,97.30
2019-05-03T20:38:11.203Z,97.20
2019-05-03T20:40:37.323Z,97.30
2019-05-03T20:43:05.343Z,97.30
2019-05-03T20:45:36.235Z,97.50
2019-05-03T20:48:05.325Z,97.50
2019-05-03T20:50:31.679Z,97.60
2019-05-03T20:52:57.861Z,97.70
2019-05-03T20:55:25.693Z,97.50
2019-05-03T20:57:52.096Z,97.50
2019-05-03T21:00:20.892Z,97.90
2019-05-03T21:02:53.344Z,97.90
2019-05-03T21:05:27.202Z,98.10
2019-05-03T21:07:45.143Z,98.00
2019-05-03T21:10:11.859Z,98.10
2019-05-03T21:12:38.009Z,98.20
2019-05-03T21:15:07.827Z,98.40
2019-05-03T21:17:39.075Z,98.20
2019-05-03T21:20:07.893Z,98.00
2019-05-03T21:22:35.457Z,98.10
2019-05-03T21:25:20.446Z,98.10
2019-05-03T21:27:46.546Z,98.40
2019-05-03T21:30:15.133Z,98.90
2019-05-03T21:32:41.657Z,98.40
2019-05-03T21:35:08.042Z,98.20
2019-05-03T21:37:34.904Z,98.60
2019-05-03T21:40:01.329Z,98.30
2019-05-03T21:42:27.446Z,98.20
2019-05-03T21:44:55.383Z,97.80
2019-05-03T21:47:24.613Z,97.70
2019-05-03T21:49:52.745Z,97.80
2019-05-03T21:52:18.852Z,97.70
2019-05-03T21:54:45.142Z,97.80
2019-05-03T21:57:16.451Z,97.90
2019-05-03T21:59:44.668Z,98.10
2019-05-03T22:02:10.492Z,98.10
2019-05-03T22:04:36.602Z,98.20
2019-05-03T22:07:02.932Z,98.10
2019-05-03T22:09:29.008Z,97.80
2019-05-03T22:11:55.096Z,97.40
2019-05-03T22:14:34.970Z,97.40
2019-05-03T22:17:19.417Z,97.40
2019-05-03T22:19:47.445Z,97.10
2019-05-03T22:22:34.094Z,97.10
2019-05-03T22:25:06.139Z,97.00
2019-05-03T22:27:45.375Z,96.70
2019-05-03T22:30:10.128Z,96.70
2019-05-03T22:32:36.247Z,96.60
2019-05-03T22:35:06.679Z,96.70
2019-05-03T22:37:32.847Z,96.80
2019-05-03T22:39:59.181Z,96.80
2019-05-03T22:42:25.437Z,97.00
2019-05-03T22:44:51.600Z,96.60
2019-05-03T22:47:17.755Z,96.40
2019-05-03T22:49:45.672Z,96.50
2019-05-03T22:52:11.898Z,96.50
2019-05-03T22:54:38.089Z,96.50
2019-05-03T22:57:05.001Z,96.50
2019-05-03T22:59:31.200Z,96.50
2019-05-03T23:01:57.326Z,96.40
2019-05-03T23:04:25.264Z,96.30
2019-05-03T23:06:51.575Z,96.30
2019-05-03T23:09:17.687Z,96.10
2019-05-03T23:11:44.751Z,96.00
2019-05-03T23:14:11.054Z,96.10
2019-05-03T23:16:37.299Z,96.10
2019-05-03T23:19:05.308Z,96.10
2019-05-03T23:21:33.498Z,96.10
2019-05-03T23:23:59.780Z,96.20
2019-05-03T23:26:26.023Z,96.20
2019-05-03T23:28:52.161Z,96.10
2019-05-03T23:31:18.240Z,96.10
2019-05-03T23:33:45.257Z,96.10
2019-05-03T23:36:11.568Z,96.10
2019-05-03T23:38:37.847Z,96.20
2019-05-03T23:41:04.882Z,96.40
2019-05-03T23:43:31.335Z,96.10
2019-05-03T23:45:57.553Z,96.10
2019-05-03T23:48:25.338Z,96.40
2019-05-03T23:50:51.664Z,97.00
2019-05-03T23:53:17.776Z,97.50
2019-05-03T23:55:45.876Z,97.80
2019-05-03T23:58:12.108Z,98.10
